createdAt,value
2022-11-10T00:02:44.424Z,100838.50
2022-11-10T00:06:06.935Z,100844.22
2022-11-10T00:09:27.864Z,100850.47
2022-11-10T00:12:49.026Z,100849.47
2022-11-10T00:16:28.923Z,100836.31
2022-11-10T00:19:50.708Z,100830.84
2022-11-10T00:23:11.522Z,100829.59
2022-11-10T00:26:32.973Z,100825.94
2022-11-10T00:29:54.409Z,100826.53
2022-11-10T00:33:16.130Z,100840.34
2022-11-10T00:36:36.862Z,100834.63
2022-11-10T00:39:57.867Z,100831.56
2022-11-10T00:43:23.810Z,100837.78
2022-11-10T00:46:47.594Z,100828.00
2022-11-10T00:50:09.090Z,100830.66
2022-11-10T00:53:30.690Z,100837.09
2022-11-10T00:56:51.610Z,100847.78
2022-11-10T01:00:13.591Z,100845.66
2022-11-10T01:03:35.389Z,100846.19
2022-11-10T01:06:56.643Z,100832.56
2022-11-10T01:10:19.249Z,100828.97
2022-11-10T01:13:41.467Z,100834.56
2022-11-10T01:17:02.655Z,100841.78
2022-11-10T01:20:24.606Z,100847.94
2022-11-10T01:23:45.573Z,100851.38
2022-11-10T01:27:06.679Z,100855.81
2022-11-10T01:30:27.733Z,100850.94
2022-11-10T01:33:49.128Z,100851.41
2022-11-10T01:37:11.439Z,100838.88
2022-11-10T01:40:32.537Z,100832.69
2022-11-10T01:43:53.940Z,100839.38
2022-11-10T01:47:15.253Z,100829.03
2022-11-10T01:50:40.134Z,100841.44
2022-11-10T01:54:08.271Z,100831.91
2022-11-10T01:57:29.469Z,100829.59
2022-11-10T02:00:51.079Z,100827.31
2022-11-10T02:04:16.582Z,100833.69
2022-11-10T02:07:38.243Z,100820.63
2022-11-10T02:10:59.672Z,100824.13
2022-11-10T02:14:21.143Z,100819.91
2022-11-10T02:17:48.835Z,100823.34
2022-11-10T02:21:10.520Z,100824.28
2022-11-10T02:24:31.554Z,100817.22
2022-11-10T02:27:52.985Z,100829.03
2022-11-10T02:31:14.302Z,100829.81
2022-11-10T02:34:35.322Z,100829.22
2022-11-10T02:37:56.458Z,100837.97
2022-11-10T02:41:17.316Z,100837.41
2022-11-10T02:44:39.258Z,100837.88
2022-11-10T02:48:00.556Z,100841.31
2022-11-10T02:51:21.638Z,100841.28
2022-11-10T02:54:42.679Z,100835.66
2022-11-10T02:58:03.681Z,100840.19
2022-11-10T03:01:24.880Z,100839.91
2022-11-10T03:04:45.653Z,100851.06
2022-11-10T03:08:06.591Z,100847.81
2022-11-10T03:11:32.094Z,100851.69
2022-11-10T03:14:53.379Z,100851.91
2022-11-10T03:18:14.594Z,100846.38
2022-11-10T03:21:35.542Z,100857.22
2022-11-10T03:24:56.388Z,100861.25
2022-11-10T03:28:17.946Z,100862.84
2022-11-10T03:31:38.646Z,100856.72
2022-11-10T03:34:59.839Z,100870.75
2022-11-10T03:38:21.092Z,100874.19
2022-11-10T03:41:42.085Z,100873.91
2022-11-10T03:45:03.274Z,100880.31
2022-11-10T03:48:24.475Z,100869.69
2022-11-10T03:51:45.310Z,100870.19
2022-11-10T03:55:07.020Z,100872.03
2022-11-10T03:58:28.127Z,100878.38
2022-11-10T04:01:49.357Z,100886.63
2022-11-10T04:05:28.579Z,100877.38
2022-11-10T04:09:02.250Z,100885.84
2022-11-10T04:12:42.748Z,100888.78
2022-11-10T04:16:03.847Z,100884.25
2022-11-10T04:19:25.033Z,100880.03
2022-11-10T04:23:04.167Z,100881.31
2022-11-10T04:26:30.929Z,100887.44
2022-11-10T04:29:51.863Z,100891.16
2022-11-10T04:33:12.618Z,100885.06
2022-11-10T04:36:38.783Z,100894.09
2022-11-10T04:40:00.011Z,100895.41
2022-11-10T04:43:21.975Z,100899.13
2022-11-10T04:46:44.169Z,100905.25
2022-11-10T04:50:06.492Z,100899.03
2022-11-10T04:53:27.444Z,100905.16
2022-11-10T04:56:48.314Z,100912.00
2022-11-10T05:00:10.559Z,100910.94
2022-11-10T05:03:31.707Z,100914.16
2022-11-10T05:06:53.956Z,100913.34
2022-11-10T05:10:16.393Z,100911.78
2022-11-10T05:13:37.888Z,100911.78
2022-11-10T05:16:58.830Z,100918.97
2022-11-10T05:20:22.041Z,100922.13
2022-11-10T05:23:44.230Z,100915.72
2022-11-10T05:27:05.253Z,100914.66
2022-11-10T05:30:27.106Z,100922.34
2022-11-10T05:33:48.252Z,100917.53
2022-11-10T05:37:09.183Z,100911.16
2022-11-10T05:40:30.458Z,100919.91
2022-11-10T05:43:51.718Z,100932.94
2022-11-10T05:47:12.924Z,100935.66
2022-11-10T05:50:34.604Z,100942.84
2022-11-10T05:53:55.430Z,100947.88
2022-11-10T05:57:16.581Z,100952.63
2022-11-10T06:00:37.998Z,100969.56
2022-11-10T06:03:59.069Z,100976.47
2022-11-10T06:07:19.996Z,100975.34
2022-11-10T06:10:41.461Z,100978.50
2022-11-10T06:14:02.115Z,100984.91
2022-11-10T06:17:23.277Z,100995.47
2022-11-10T06:20:46.366Z,101011.22
2022-11-10T06:24:07.536Z,101017.56
2022-11-10T06:27:28.623Z,101007.41
2022-11-10T06:30:49.778Z,101003.47
2022-11-10T06:34:10.808Z,101021.00
2022-11-10T06:37:32.141Z,101024.38
2022-11-10T06:40:53.212Z,101031.28
2022-11-10T06:44:14.215Z,101037.03
2022-11-10T06:47:35.357Z,101037.00
2022-11-10T06:50:59.863Z,101038.28
2022-11-10T06:54:20.743Z,101036.91
2022-11-10T06:57:41.791Z,101031.81
2022-11-10T07:01:02.882Z,101032.59
2022-11-10T07:04:24.026Z,101037.34
2022-11-10T07:07:46.309Z,101049.72
2022-11-10T07:11:08.850Z,101047.22
2022-11-10T07:14:31.207Z,101046.56
2022-11-10T07:17:53.383Z,101060.66
2022-11-10T07:21:14.773Z,101062.03
2022-11-10T07:24:36.149Z,101070.81
2022-11-10T07:27:59.513Z,101064.97
2022-11-10T07:31:20.742Z,101073.47
2022-11-10T07:34:42.396Z,101067.53
2022-11-10T07:38:06.822Z,101065.81
2022-11-10T07:41:27.782Z,101066.16
2022-11-10T07:44:48.702Z,101082.16
2022-11-10T07:48:09.752Z,101083.06
2022-11-10T07:51:31.451Z,101091.34
2022-11-10T07:54:52.393Z,101096.47
2022-11-10T07:58:15.241Z,101098.63
2022-11-10T08:01:36.450Z,101102.38
2022-11-10T08:04:57.901Z,101101.59
2022-11-10T08:08:19.745Z,101118.28
2022-11-10T08:11:41.642Z,101122.63
2022-11-10T08:15:03.705Z,101134.84
2022-11-10T08:18:24.680Z,101145.38
2022-11-10T08:21:46.037Z,101143.59
2022-11-10T08:25:07.371Z,101150.28
2022-11-10T08:28:28.801Z,101151.16
2022-11-10T08:31:50.049Z,101156.78
2022-11-10T08:35:11.327Z,101161.31
2022-11-10T08:38:32.901Z,101175.56
2022-11-10T08:41:54.204Z,101174.91
2022-11-10T08:45:15.819Z,101167.19
2022-11-10T08:48:37.283Z,101178.31
2022-11-10T08:51:58.401Z,101176.19
2022-11-10T08:55:20.390Z,101175.25
2022-11-10T08:58:50.206Z,101182.34
2022-11-10T09:02:14.106Z,101191.56
2022-11-10T09:05:36.423Z,101199.06
2022-11-10T09:08:57.843Z,101203.94
2022-11-10T09:12:19.280Z,101212.16
2022-11-10T09:15:41.854Z,101218.19
2022-11-10T09:19:02.986Z,101223.06
2022-11-10T09:22:24.193Z,101213.09
2022-11-10T09:25:50.566Z,101223.06
2022-11-10T09:29:11.558Z,101214.69
2022-11-10T09:32:33.235Z,101221.81
2022-11-10T09:35:58.807Z,101219.53
2022-11-10T09:39:19.891Z,101225.72
2022-11-10T09:42:42.061Z,101225.13
2022-11-10T09:46:11.544Z,101214.31
2022-11-10T09:49:41.337Z,101215.59
2022-11-10T09:53:02.435Z,101213.25
2022-11-10T09:56:31.273Z,101211.03
2022-11-10T09:59:54.281Z,101204.63
2022-11-10T10:03:24.635Z,101213.09
2022-11-10T10:07:10.808Z,101216.06
2022-11-10T10:10:38.276Z,101219.53
2022-11-10T10:14:09.480Z,101213.09
2022-11-10T10:17:40.981Z,101216.13
2022-11-10T10:21:18.024Z,101212.97
2022-11-10T10:24:40.105Z,101222.41
2022-11-10T10:28:14.179Z,101226.47
2022-11-10T10:31:40.761Z,101239.00
2022-11-10T10:35:01.710Z,101240.94
2022-11-10T10:38:29.694Z,101234.16
2022-11-10T10:41:50.924Z,101242.78
2022-11-10T10:45:21.417Z,101238.28
2022-11-10T10:48:43.170Z,101244.09
2022-11-10T10:52:11.031Z,101243.69
2022-11-10T10:55:32.983Z,101253.00
2022-11-10T10:58:56.915Z,101258.72
2022-11-10T11:02:24.468Z,101249.13
2022-11-10T11:06:00.871Z,101245.25
2022-11-10T11:09:27.051Z,101247.09
2022-11-10T11:12:48.118Z,101260.00
2022-11-10T11:16:12.306Z,101256.06
2022-11-10T11:19:37.159Z,101273.31
2022-11-10T11:23:07.051Z,101269.13
2022-11-10T11:26:46.680Z,101270.94
2022-11-10T11:30:15.254Z,101273.63
2022-11-10T11:33:45.342Z,101269.22
2022-11-10T11:37:35.971Z,101267.25
2022-11-10T11:41:33.257Z,101271.50
2022-11-10T11:45:13.206Z,101275.16
2022-11-10T11:49:10.911Z,101276.28
2022-11-10T11:52:45.306Z,101281.31
2022-11-10T11:56:16.208Z,101274.19
2022-11-10T12:00:00.229Z,101273.97
2022-11-10T12:03:37.635Z,101272.22
2022-11-10T12:07:05.387Z,101290.22
2022-11-10T12:10:46.243Z,101286.56
2022-11-10T12:14:27.450Z,101289.16
2022-11-10T12:18:19.000Z,101297.19
2022-11-10T12:21:47.557Z,101298.75
2022-11-10T12:25:19.730Z,101301.78
2022-11-10T12:29:01.078Z,101308.63
2022-11-10T12:32:24.683Z,101315.00
2022-11-10T12:35:46.866Z,101310.66
2022-11-10T12:39:10.733Z,101309.59
2022-11-10T12:42:34.279Z,101303.47
2022-11-10T12:46:00.033Z,101317.53
2022-11-10T12:49:32.672Z,101319.25
2022-11-10T12:53:17.546Z,101322.28
2022-11-10T12:56:45.057Z,101323.47
2022-11-10T13:00:28.896Z,101335.03
2022-11-10T13:03:59.193Z,101330.69
2022-11-10T13:07:24.803Z,101340.59
2022-11-10T13:11:12.257Z,101339.31
2022-11-10T13:14:34.419Z,101345.06
2022-11-10T13:17:55.726Z,101345.94
2022-11-10T13:21:16.882Z,101349.59
2022-11-10T13:24:40.871Z,101348.91
2022-11-10T13:28:02.584Z,101353.25
2022-11-10T13:31:31.182Z,101359.50
2022-11-10T13:34:52.808Z,101352.56
2022-11-10T13:38:32.442Z,101366.19
2022-11-10T13:42:01.067Z,101368.28
2022-11-10T13:45:30.386Z,101374.91
2022-11-10T13:49:04.290Z,101385.59
2022-11-10T13:52:26.862Z,101385.59
2022-11-10T13:56:02.588Z,101392.00
2022-11-10T13:59:30.845Z,101404.59
2022-11-10T14:02:55.607Z,101415.28
2022-11-10T14:06:21.172Z,101413.38
2022-11-10T14:09:45.621Z,101424.88
2022-11-10T14:13:19.226Z,101418.94
2022-11-10T14:16:43.045Z,101413.88
2022-11-10T14:20:05.068Z,101411.09
2022-11-10T14:23:50.424Z,101414.91
2022-11-10T14:27:21.258Z,101426.66
2022-11-10T14:30:51.208Z,101434.78
2022-11-10T14:34:17.682Z,101441.00
2022-11-10T14:37:43.362Z,101442.44
2022-11-10T14:41:06.726Z,101438.84
2022-11-10T14:44:29.512Z,101432.19
2022-11-10T14:47:59.384Z,101437.31
2022-11-10T14:51:20.364Z,101435.50
2022-11-10T14:54:46.227Z,101445.41
2022-11-10T14:58:10.372Z,101440.94
2022-11-10T15:01:37.432Z,101446.34
2022-11-10T15:04:58.842Z,101443.91
2022-11-10T15:08:20.547Z,101438.91
2022-11-10T15:11:50.005Z,101457.66
2022-11-10T15:15:22.781Z,101458.72
2022-11-10T15:18:44.190Z,101472.16
2022-11-10T15:22:33.585Z,101478.06
2022-11-10T15:25:54.385Z,101470.84
2022-11-10T15:29:21.702Z,101475.69
2022-11-10T15:32:43.718Z,101476.25
2022-11-10T15:36:23.075Z,101475.22
2022-11-10T15:39:44.789Z,101479.56
2022-11-10T15:43:29.925Z,101493.97
2022-11-10T15:46:53.473Z,101505.44
2022-11-10T15:50:15.219Z,101505.72
2022-11-10T15:53:42.574Z,101501.19
2022-11-10T15:57:04.209Z,101502.81
2022-11-10T16:00:25.118Z,101504.19
2022-11-10T16:03:46.874Z,101510.59
2022-11-10T16:07:08.678Z,101512.47
2022-11-10T16:10:30.565Z,101510.34
2022-11-10T16:13:52.758Z,101523.97
2022-11-10T16:17:14.686Z,101518.63
2022-11-10T16:20:35.794Z,101528.78
2022-11-10T16:23:57.722Z,101546.38
2022-11-10T16:27:18.540Z,101546.09
2022-11-10T16:30:40.010Z,101541.28
2022-11-10T16:34:00.928Z,101557.06
2022-11-10T16:37:22.039Z,101559.22
2022-11-10T16:40:43.475Z,101559.50
2022-11-10T16:44:05.981Z,101573.91
2022-11-10T16:47:27.723Z,101581.69
2022-11-10T16:50:51.758Z,101588.59
2022-11-10T16:54:13.127Z,101589.97
2022-11-10T16:57:39.722Z,101601.69
2022-11-10T17:01:01.887Z,101600.63
2022-11-10T17:04:23.377Z,101607.88
2022-11-10T17:07:44.258Z,101614.34
2022-11-10T17:11:06.055Z,101615.19
2022-11-10T17:14:26.802Z,101619.75
2022-11-10T17:17:53.069Z,101613.44
2022-11-10T17:21:14.719Z,101606.84
2022-11-10T17:24:36.226Z,101608.97
2022-11-10T17:27:56.985Z,101612.19
2022-11-10T17:31:18.338Z,101615.41
2022-11-10T17:34:39.083Z,101618.63
2022-11-10T17:38:00.953Z,101629.34
2022-11-10T17:41:22.202Z,101631.44
2022-11-10T17:44:43.570Z,101630.41
2022-11-10T17:48:05.116Z,101630.41
2022-11-10T17:51:26.527Z,101637.59
2022-11-10T17:54:47.665Z,101646.13
2022-11-10T17:58:11.642Z,101639.44
2022-11-10T18:01:32.865Z,101646.88
2022-11-10T18:04:53.805Z,101654.84
2022-11-10T18:08:16.119Z,101656.97
2022-11-10T18:11:37.290Z,101667.09
2022-11-10T18:14:58.327Z,101664.97
2022-11-10T18:18:20.314Z,101678.81
2022-11-10T18:21:41.472Z,101674.81
2022-11-10T18:25:03.063Z,101680.19
2022-11-10T18:28:24.417Z,101695.34
2022-11-10T18:31:45.876Z,101699.66
2022-11-10T18:35:07.330Z,101708.47
2022-11-10T18:38:28.730Z,101706.63
2022-11-10T18:41:49.785Z,101715.16
2022-11-10T18:45:11.532Z,101714.59
2022-11-10T18:48:37.007Z,101722.06
2022-11-10T18:51:58.600Z,101749.50
2022-11-10T18:55:20.347Z,101744.69
2022-11-10T18:58:42.416Z,101754.81
2022-11-10T19:02:03.559Z,101761.50
2022-11-10T19:05:25.565Z,101775.88
2022-11-10T19:08:46.597Z,101774.25
2022-11-10T19:12:08.339Z,101785.72
2022-11-10T19:15:29.462Z,101775.88
2022-11-10T19:18:50.537Z,101770.00
2022-11-10T19:22:11.736Z,101771.91
2022-11-10T19:25:33.735Z,101782.31
2022-11-10T19:28:56.071Z,101778.88
2022-11-10T19:32:22.111Z,101773.81
2022-11-10T19:35:45.940Z,101779.69
2022-11-10T19:39:10.345Z,101779.19
2022-11-10T19:42:32.737Z,101772.00
2022-11-10T19:45:54.211Z,101769.88
2022-11-10T19:49:15.059Z,101778.91
2022-11-10T19:52:36.356Z,101785.81
2022-11-10T19:56:05.499Z,101787.66
2022-11-10T19:59:27.054Z,101790.75
2022-11-10T20:02:48.389Z,101793.34
2022-11-10T20:06:16.126Z,101793.84
2022-11-10T20:09:37.451Z,101798.63
2022-11-10T20:12:59.345Z,101808.47
2022-11-10T20:16:20.868Z,101807.94
2022-11-10T20:19:42.286Z,101815.59
2022-11-10T20:23:08.881Z,101813.97
2022-11-10T20:26:30.798Z,101827.22
2022-11-10T20:29:52.117Z,101828.00
2022-11-10T20:33:13.630Z,101827.09
2022-11-10T20:36:34.998Z,101837.84
2022-11-10T20:39:56.688Z,101834.41
2022-11-10T20:43:18.527Z,101843.72
2022-11-10T20:46:54.167Z,101841.91
2022-11-10T20:50:21.663Z,101840.06
2022-11-10T20:53:45.979Z,101843.09
2022-11-10T20:57:06.724Z,101847.09
2022-11-10T21:00:28.413Z,101844.72
2022-11-10T21:03:49.433Z,101840.41
2022-11-10T21:07:10.493Z,101847.09
2022-11-10T21:10:31.470Z,101847.25
2022-11-10T21:13:54.026Z,101849.84
2022-11-10T21:17:15.030Z,101848.56
2022-11-10T21:20:36.546Z,101856.94
2022-11-10T21:23:58.203Z,101855.16
2022-11-10T21:27:19.220Z,101858.31
2022-11-10T21:30:40.446Z,101863.06
2022-11-10T21:34:01.381Z,101871.31
2022-11-10T21:37:23.601Z,101869.13
2022-11-10T21:40:44.707Z,101878.63
2022-11-10T21:44:05.697Z,101877.94
2022-11-10T21:47:26.951Z,101888.59
2022-11-10T21:50:48.226Z,101876.63
2022-11-10T21:54:10.394Z,101887.31
2022-11-10T21:57:31.513Z,101887.66
2022-11-10T22:00:52.663Z,101894.59
2022-11-10T22:04:15.014Z,101887.75
2022-11-10T22:07:38.559Z,101894.16
2022-11-10T22:11:18.174Z,101896.03
2022-11-10T22:14:57.764Z,101911.50
2022-11-10T22:18:37.083Z,101908.63
2022-11-10T22:22:02.464Z,101917.53
2022-11-10T22:25:25.172Z,101912.66
2022-11-10T22:28:46.717Z,101913.41
2022-11-10T22:32:07.415Z,101914.69
2022-11-10T22:35:43.745Z,101904.84
2022-11-10T22:39:05.482Z,101908.72
2022-11-10T22:42:45.110Z,101911.19
2022-11-10T22:46:05.859Z,101911.88
2022-11-10T22:49:27.258Z,101906.28
2022-11-10T22:52:48.445Z,101904.91
2022-11-10T22:56:10.369Z,101913.19
2022-11-10T22:59:31.438Z,101916.63
2022-11-10T23:02:52.845Z,101922.19
2022-11-10T23:06:14.291Z,101921.66
2022-11-10T23:09:36.327Z,101916.75
2022-11-10T23:12:57.503Z,101915.59
2022-11-10T23:16:20.994Z,101915.25
2022-11-10T23:19:41.911Z,101913.16
2022-11-10T23:23:03.003Z,101916.69
2022-11-10T23:26:27.457Z,101932.13
2022-11-10T23:29:48.446Z,101930.81
2022-11-10T23:33:09.330Z,101925.31
2022-11-10T23:36:30.805Z,101928.66
2022-11-10T23:39:52.196Z,101926.75
2022-11-10T23:43:13.489Z,101933.38
2022-11-10T23:46:35.335Z,101930.13
2022-11-10T23:49:56.381Z,101934.69
2022-11-10T23:53:18.891Z,101939.69
2022-11-10T23:56:39.739Z,101933.34
